sensor_id;sensor_type;location;lat;lon;timestamp;temperature;humidity
4934;DHT22;2482;49.154;8.254;2022-11-20T00:01:30;3.90;99.90
4934;DHT22;2482;49.154;8.254;2022-11-20T00:03:58;3.80;99.90
4934;DHT22;2482;49.154;8.254;2022-11-20T00:06:27;3.80;99.90
4934;DHT22;2482;49.154;8.254;2022-11-20T00:08:59;3.90;99.90
4934;DHT22;2482;49.154;8.254;2022-11-20T00:11:29;3.90;99.90
4934;DHT22;2482;49.154;8.254;2022-11-20T00:13:59;3.90;99.90
4934;DHT22;2482;49.154;8.254;2022-11-20T00:16:29;4.20;99.90
4934;DHT22;2482;49.154;8.254;2022-11-20T00:18:58;4.20;99.90
4934;DHT22;2482;49.154;8.254;2022-11-20T00:21:26;4.20;99.90
4934;DHT22;2482;49.154;8.254;2022-11-20T00:23:57;4.20;99.90
4934;DHT22;2482;49.154;8.254;2022-11-20T00:26:25;4.30;99.90
4934;DHT22;2482;49.154;8.254;2022-11-20T00:28:59;4.30;99.90
4934;DHT22;2482;49.154;8.254;2022-11-20T00:31:28;4.20;99.90
4934;DHT22;2482;49.154;8.254;2022-11-20T00:33:55;4.30;99.90
4934;DHT22;2482;49.154;8.254;2022-11-20T00:36:25;4.60;99.90
4934;DHT22;2482;49.154;8.254;2022-11-20T00:38:54;4.80;99.90
4934;DHT22;2482;49.154;8.254;2022-11-20T00:41:23;4.60;99.90
4934;DHT22;2482;49.154;8.254;2022-11-20T00:43:54;4.70;99.90
4934;DHT22;2482;49.154;8.254;2022-11-20T00:46:24;4.60;99.90
4934;DHT22;2482;49.154;8.254;2022-11-20T00:48:53;4.50;99.90
4934;DHT22;2482;49.154;8.254;2022-11-20T00:51:23;4.80;99.90
4934;DHT22;2482;49.154;8.254;2022-11-20T00:53:50;4.80;99.90
4934;DHT22;2482;49.154;8.254;2022-11-20T00:56:19;5.20;99.90
4934;DHT22;2482;49.154;8.254;2022-11-20T00:58:48;5.00;99.90
4934;DHT22;2482;49.154;8.254;2022-11-20T01:01:22;5.10;99.90
4934;DHT22;2482;49.154;8.254;2022-11-20T01:03:54;4.90;99.90
4934;DHT22;2482;49.154;8.254;2022-11-20T01:06:24;4.90;99.90
4934;DHT22;2482;49.154;8.254;2022-11-20T01:08:54;4.80;99.90
4934;DHT22;2482;49.154;8.254;2022-11-20T01:11:26;4.80;99.90
4934;DHT22;2482;49.154;8.254;2022-11-20T01:13:55;5.00;99.90
4934;DHT22;2482;49.154;8.254;2022-11-20T01:16:33;5.00;99.90
4934;DHT22;2482;49.154;8.254;2022-11-20T01:19:03;5.00;99.90
4934;DHT22;2482;49.154;8.254;2022-11-20T01:21:38;4.90;99.90
4934;DHT22;2482;49.154;8.254;2022-11-20T01:24:08;5.00;99.90
4934;DHT22;2482;49.154;8.254;2022-11-20T01:26:40;5.00;99.90
4934;DHT22;2482;49.154;8.254;2022-11-20T01:29:17;4.80;99.90
4934;DHT22;2482;49.154;8.254;2022-11-20T01:31:47;4.60;99.90
4934;DHT22;2482;49.154;8.254;2022-11-20T01:34:17;4.70;99.90
4934;DHT22;2482;49.154;8.254;2022-11-20T01:36:45;4.60;99.90
4934;DHT22;2482;49.154;8.254;2022-11-20T01:39:13;4.60;99.90
4934;DHT22;2482;49.154;8.254;2022-11-20T01:41:46;4.60;99.90
4934;DHT22;2482;49.154;8.254;2022-11-20T01:47:40;4.70;99.90
4934;DHT22;2482;49.154;8.254;2022-11-20T01:50:17;4.90;99.90
4934;DHT22;2482;49.154;8.254;2022-11-20T01:52:58;4.80;99.90
4934;DHT22;2482;49.154;8.254;2022-11-20T01:55:32;4.70;99.90
4934;DHT22;2482;49.154;8.254;2022-11-20T01:58:01;4.60;99.90
4934;DHT22;2482;49.154;8.254;2022-11-20T02:00:29;4.60;99.90
4934;DHT22;2482;49.154;8.254;2022-11-20T02:03:02;4.50;99.90
4934;DHT22;2482;49.154;8.254;2022-11-20T02:05:33;4.60;99.90
4934;DHT22;2482;49.154;8.254;2022-11-20T02:08:04;4.50;99.90
4934;DHT22;2482;49.154;8.254;2022-11-20T02:10:33;4.60;99.90
4934;DHT22;2482;49.154;8.254;2022-11-20T02:13:00;4.60;99.90
4934;DHT22;2482;49.154;8.254;2022-11-20T02:15:46;4.60;99.90
4934;DHT22;2482;49.154;8.254;2022-11-20T02:18:19;4.70;99.90
4934;DHT22;2482;49.154;8.254;2022-11-20T02:20:49;4.70;99.90
4934;DHT22;2482;49.154;8.254;2022-11-20T02:23:39;4.80;99.90
4934;DHT22;2482;49.154;8.254;2022-11-20T02:26:27;4.90;99.90
4934;DHT22;2482;49.154;8.254;2022-11-20T02:28:54;5.10;99.90
4934;DHT22;2482;49.154;8.254;2022-11-20T02:31:22;5.20;99.90
4934;DHT22;2482;49.154;8.254;2022-11-20T02:33:57;5.20;99.90
4934;DHT22;2482;49.154;8.254;2022-11-20T02:36:26;5.10;99.90
4934;DHT22;2482;49.154;8.254;2022-11-20T02:38:54;5.20;99.90
4934;DHT22;2482;49.154;8.254;2022-11-20T02:41:21;5.20;99.90
4934;DHT22;2482;49.154;8.254;2022-11-20T02:43:48;5.20;99.90
4934;DHT22;2482;49.154;8.254;2022-11-20T02:46:15;5.10;99.90
4934;DHT22;2482;49.154;8.254;2022-11-20T02:48:43;5.10;99.90
4934;DHT22;2482;49.154;8.254;2022-11-20T02:51:11;5.00;99.90
4934;DHT22;2482;49.154;8.254;2022-11-20T02:53:38;4.90;99.90
4934;DHT22;2482;49.154;8.254;2022-11-20T02:56:06;5.10;99.90
4934;DHT22;2482;49.154;8.254;2022-11-20T02:58:33;5.20;99.90
4934;DHT22;2482;49.154;8.254;2022-11-20T03:01:00;5.40;99.90
4934;DHT22;2482;49.154;8.254;2022-11-20T03:03:27;5.50;99.90
4934;DHT22;2482;49.154;8.254;2022-11-20T03:05:55;5.90;99.90
4934;DHT22;2482;49.154;8.254;2022-11-20T03:08:21;5.90;99.90
4934;DHT22;2482;49.154;8.254;2022-11-20T03:10:48;6.10;99.90
4934;DHT22;2482;49.154;8.254;2022-11-20T03:13:15;6.20;99.90
4934;DHT22;2482;49.154;8.254;2022-11-20T03:15:42;6.10;99.90
4934;DHT22;2482;49.154;8.254;2022-11-20T03:18:09;6.20;99.90
4934;DHT22;2482;49.154;8.254;2022-11-20T03:20:36;6.00;99.90
4934;DHT22;2482;49.154;8.254;2022-11-20T03:23:03;6.20;99.90
4934;DHT22;2482;49.154;8.254;2022-11-20T03:25:30;6.20;99.90
4934;DHT22;2482;49.154;8.254;2022-11-20T03:27:57;6.20;99.90
4934;DHT22;2482;49.154;8.254;2022-11-20T03:30:25;6.40;99.90
4934;DHT22;2482;49.154;8.254;2022-11-20T03:32:57;6.40;99.90
4934;DHT22;2482;49.154;8.254;2022-11-20T03:35:24;6.50;99.90
4934;DHT22;2482;49.154;8.254;2022-11-20T03:37:51;6.70;99.90
4934;DHT22;2482;49.154;8.254;2022-11-20T03:40:18;6.60;99.90
4934;DHT22;2482;49.154;8.254;2022-11-20T03:42:45;6.70;99.90
4934;DHT22;2482;49.154;8.254;2022-11-20T03:45:14;6.70;99.90
4934;DHT22;2482;49.154;8.254;2022-11-20T03:47:43;6.80;99.90
4934;DHT22;2482;49.154;8.254;2022-11-20T03:50:12;6.80;99.90
4934;DHT22;2482;49.154;8.254;2022-11-20T03:52:40;6.70;99.90
4934;DHT22;2482;49.154;8.254;2022-11-20T03:55:07;7.00;99.90
4934;DHT22;2482;49.154;8.254;2022-11-20T03:57:34;6.90;99.90
4934;DHT22;2482;49.154;8.254;2022-11-20T04:00:02;7.00;99.90
4934;DHT22;2482;49.154;8.254;2022-11-20T04:02:30;7.00;99.90
4934;DHT22;2482;49.154;8.254;2022-11-20T04:04:57;6.90;99.90
4934;DHT22;2482;49.154;8.254;2022-11-20T04:07:25;7.00;99.90
4934;DHT22;2482;49.154;8.254;2022-11-20T04:09:54;7.10;99.90
4934;DHT22;2482;49.154;8.254;2022-11-20T04:12:21;7.10;99.90
4934;DHT22;2482;49.154;8.254;2022-11-20T04:14:48;7.10;99.90
4934;DHT22;2482;49.154;8.254;2022-11-20T04:17:15;7.10;99.90
4934;DHT22;2482;49.154;8.254;2022-11-20T04:19:42;7.20;99.90
4934;DHT22;2482;49.154;8.254;2022-11-20T04:22:09;7.10;99.90
4934;DHT22;2482;49.154;8.254;2022-11-20T04:24:39;7.10;99.90
4934;DHT22;2482;49.154;8.254;2022-11-20T04:27:08;7.10;99.90
4934;DHT22;2482;49.154;8.254;2022-11-20T04:29:34;7.10;99.90
4934;DHT22;2482;49.154;8.254;2022-11-20T04:32:01;7.30;99.90
4934;DHT22;2482;49.154;8.254;2022-11-20T04:34:29;7.10;99.90
4934;DHT22;2482;49.154;8.254;2022-11-20T04:36:55;7.10;99.90
4934;DHT22;2482;49.154;8.254;2022-11-20T04:39:22;7.20;99.90
4934;DHT22;2482;49.154;8.254;2022-11-20T04:41:50;7.30;99.90
4934;DHT22;2482;49.154;8.254;2022-11-20T04:44:37;7.40;99.90
4934;DHT22;2482;49.154;8.254;2022-11-20T04:47:04;7.30;99.90
4934;DHT22;2482;49.154;8.254;2022-11-20T04:49:31;7.30;99.90
4934;DHT22;2482;49.154;8.254;2022-11-20T04:51:59;7.20;99.90
4934;DHT22;2482;49.154;8.254;2022-11-20T04:54:26;7.30;99.90
4934;DHT22;2482;49.154;8.254;2022-11-20T04:56:53;7.40;99.90
4934;DHT22;2482;49.154;8.254;2022-11-20T04:59:22;7.30;99.90
4934;DHT22;2482;49.154;8.254;2022-11-20T05:01:49;7.40;99.90
4934;DHT22;2482;49.154;8.254;2022-11-20T05:04:16;7.30;99.90
4934;DHT22;2482;49.154;8.254;2022-11-20T05:06:43;7.30;99.90
4934;DHT22;2482;49.154;8.254;2022-11-20T05:09:12;7.30;99.90
4934;DHT22;2482;49.154;8.254;2022-11-20T05:11:39;7.40;99.90
4934;DHT22;2482;49.154;8.254;2022-11-20T05:14:06;7.40;99.90
4934;DHT22;2482;49.154;8.254;2022-11-20T05:16:34;7.50;99.90
4934;DHT22;2482;49.154;8.254;2022-11-20T05:19:02;7.40;99.90
4934;DHT22;2482;49.154;8.254;2022-11-20T05:21:30;7.40;99.90
4934;DHT22;2482;49.154;8.254;2022-11-20T05:23:58;7.40;99.90
4934;DHT22;2482;49.154;8.254;2022-11-20T05:26:25;7.50;99.90
4934;DHT22;2482;49.154;8.254;2022-11-20T05:28:52;7.40;99.90
4934;DHT22;2482;49.154;8.254;2022-11-20T05:31:21;7.50;99.90
4934;DHT22;2482;49.154;8.254;2022-11-20T05:33:55;7.50;99.90
4934;DHT22;2482;49.154;8.254;2022-11-20T05:36:23;7.50;99.90
4934;DHT22;2482;49.154;8.254;2022-11-20T05:38:50;7.50;99.90
4934;DHT22;2482;49.154;8.254;2022-11-20T05:41:21;7.40;99.90
4934;DHT22;2482;49.154;8.254;2022-11-20T05:43:52;7.60;99.90
4934;DHT22;2482;49.154;8.254;2022-11-20T05:46:20;7.50;99.90
4934;DHT22;2482;49.154;8.254;2022-11-20T05:48:57;7.40;99.90
4934;DHT22;2482;49.154;8.254;2022-11-20T05:51:26;7.30;99.90
4934;DHT22;2482;49.154;8.254;2022-11-20T05:53:56;7.30;99.90
4934;DHT22;2482;49.154;8.254;2022-11-20T05:56:27;7.50;99.90
4934;DHT22;2482;49.154;8.254;2022-11-20T05:58:56;7.40;99.90
4934;DHT22;2482;49.154;8.254;2022-11-20T06:01:24;7.30;99.90
4934;DHT22;2482;49.154;8.254;2022-11-20T06:03:53;7.40;99.90
4934;DHT22;2482;49.154;8.254;2022-11-20T06:06:20;7.40;99.90
4934;DHT22;2482;49.154;8.254;2022-11-20T06:08:48;7.40;99.90
4934;DHT22;2482;49.154;8.254;2022-11-20T06:11:16;7.30;99.90
4934;DHT22;2482;49.154;8.254;2022-11-20T06:13:46;7.40;99.90
4934;DHT22;2482;49.154;8.254;2022-11-20T06:16:17;7.30;99.90
4934;DHT22;2482;49.154;8.254;2022-11-20T06:18:46;7.40;99.90
4934;DHT22;2482;49.154;8.254;2022-11-20T06:21:16;7.40;99.90
4934;DHT22;2482;49.154;8.254;2022-11-20T06:23:45;7.40;99.90
4934;DHT22;2482;49.154;8.254;2022-11-20T06:28:46;7.50;99.90
4934;DHT22;2482;49.154;8.254;2022-11-20T06:31:17;7.60;99.90
4934;DHT22;2482;49.154;8.254;2022-11-20T06:33:47;7.30;99.90
4934;DHT22;2482;49.154;8.254;2022-11-20T06:36:16;7.20;99.90
4934;DHT22;2482;49.154;8.254;2022-11-20T06:38:45;7.30;99.90
4934;DHT22;2482;49.154;8.254;2022-11-20T06:41:15;7.30;99.90
4934;DHT22;2482;49.154;8.254;2022-11-20T06:43:44;7.40;99.90
4934;DHT22;2482;49.154;8.254;2022-11-20T06:46:12;7.40;99.90
4934;DHT22;2482;49.154;8.254;2022-11-20T06:48:40;7.50;99.90
4934;DHT22;2482;49.154;8.254;2022-11-20T06:51:13;7.50;99.90
4934;DHT22;2482;49.154;8.254;2022-11-20T06:53:40;7.50;99.90
4934;DHT22;2482;49.154;8.254;2022-11-20T06:56:07;7.50;99.90
4934;DHT22;2482;49.154;8.254;2022-11-20T06:58:35;7.50;99.90
4934;DHT22;2482;49.154;8.254;2022-11-20T07:01:04;7.50;99.90
4934;DHT22;2482;49.154;8.254;2022-11-20T07:03:42;7.40;99.90
4934;DHT22;2482;49.154;8.254;2022-11-20T07:06:10;7.40;99.90
4934;DHT22;2482;49.154;8.254;2022-11-20T07:08:38;7.40;99.90
4934;DHT22;2482;49.154;8.254;2022-11-20T07:11:07;7.50;99.90
4934;DHT22;2482;49.154;8.254;2022-11-20T07:13:36;7.40;99.90
4934;DHT22;2482;49.154;8.254;2022-11-20T07:16:06;7.40;99.90
4934;DHT22;2482;49.154;8.254;2022-11-20T07:18:34;7.40;99.90
4934;DHT22;2482;49.154;8.254;2022-11-20T07:21:07;7.40;99.90
4934;DHT22;2482;49.154;8.254;2022-11-20T07:23:35;7.30;99.90
4934;DHT22;2482;49.154;8.254;2022-11-20T07:26:07;7.40;99.90
4934;DHT22;2482;49.154;8.254;2022-11-20T07:28:36;7.40;99.90
4934;DHT22;2482;49.154;8.254;2022-11-20T07:31:10;7.40;99.90
4934;DHT22;2482;49.154;8.254;2022-11-20T07:33:44;7.40;99.90
4934;DHT22;2482;49.154;8.254;2022-11-20T07:36:11;7.50;99.90
4934;DHT22;2482;49.154;8.254;2022-11-20T07:38:39;7.40;99.90
4934;DHT22;2482;49.154;8.254;2022-11-20T07:41:06;7.40;99.90
4934;DHT22;2482;49.154;8.254;2022-11-20T07:43:33;7.40;99.90
4934;DHT22;2482;49.154;8.254;2022-11-20T07:46:06;7.40;99.90
4934;DHT22;2482;49.154;8.254;2022-11-20T07:48:33;7.50;99.90
4934;DHT22;2482;49.154;8.254;2022-11-20T07:51:00;7.40;99.90
4934;DHT22;2482;49.154;8.254;2022-11-20T07:53:27;7.40;99.90
4934;DHT22;2482;49.154;8.254;2022-11-20T07:55:54;7.50;99.90
4934;DHT22;2482;49.154;8.254;2022-11-20T07:58:21;7.40;99.90
4934;DHT22;2482;49.154;8.254;2022-11-20T08:00:48;7.50;99.90
4934;DHT22;2482;49.154;8.254;2022-11-20T08:03:16;7.50;99.90
4934;DHT22;2482;49.154;8.254;2022-11-20T08:05:50;7.40;99.90
4934;DHT22;2482;49.154;8.254;2022-11-20T08:08:17;7.50;99.90
4934;DHT22;2482;49.154;8.254;2022-11-20T08:10:44;7.50;99.90
4934;DHT22;2482;49.154;8.254;2022-11-20T08:13:11;7.50;99.90
4934;DHT22;2482;49.154;8.254;2022-11-20T08:15:56;7.60;99.90
4934;DHT22;2482;49.154;8.254;2022-11-20T08:18:23;7.50;99.90
4934;DHT22;2482;49.154;8.254;2022-11-20T08:21:03;7.50;99.90
4934;DHT22;2482;49.154;8.254;2022-11-20T08:23:31;7.50;99.90
4934;DHT22;2482;49.154;8.254;2022-11-20T08:25:58;7.60;99.90
4934;DHT22;2482;49.154;8.254;2022-11-20T08:28:25;7.60;99.90
4934;DHT22;2482;49.154;8.254;2022-11-20T08:31:00;7.70;99.90
4934;DHT22;2482;49.154;8.254;2022-11-20T08:33:30;7.60;99.90
4934;DHT22;2482;49.154;8.254;2022-11-20T08:36:00;7.70;99.90
4934;DHT22;2482;49.154;8.254;2022-11-20T08:38:29;7.80;99.90
4934;DHT22;2482;49.154;8.254;2022-11-20T08:40:58;7.60;99.90
4934;DHT22;2482;49.154;8.254;2022-11-20T08:43:47;7.70;99.90
4934;DHT22;2482;49.154;8.254;2022-11-20T08:46:16;7.70;99.90
4934;DHT22;2482;49.154;8.254;2022-11-20T08:48:43;7.80;99.90
4934;DHT22;2482;49.154;8.254;2022-11-20T08:51:12;7.60;99.90
4934;DHT22;2482;49.154;8.254;2022-11-20T08:53:39;7.60;99.90
4934;DHT22;2482;49.154;8.254;2022-11-20T08:56:07;7.70;99.90
4934;DHT22;2482;49.154;8.254;2022-11-20T08:58:34;7.70;99.90
4934;DHT22;2482;49.154;8.254;2022-11-20T09:01:22;7.70;99.90
4934;DHT22;2482;49.154;8.254;2022-11-20T09:03:50;7.70;99.90
4934;DHT22;2482;49.154;8.254;2022-11-20T09:06:17;7.70;99.90
4934;DHT22;2482;49.154;8.254;2022-11-20T09:08:44;7.80;99.90
4934;DHT22;2482;49.154;8.254;2022-11-20T09:11:11;7.90;99.90
4934;DHT22;2482;49.154;8.254;2022-11-20T09:13:38;7.90;99.90
4934;DHT22;2482;49.154;8.254;2022-11-20T09:16:08;7.90;99.90
4934;DHT22;2482;49.154;8.254;2022-11-20T09:18:35;7.90;99.90
4934;DHT22;2482;49.154;8.254;2022-11-20T09:21:06;8.10;99.90
4934;DHT22;2482;49.154;8.254;2022-11-20T09:23:38;8.20;99.90
4934;DHT22;2482;49.154;8.254;2022-11-20T09:26:09;8.20;99.90
4934;DHT22;2482;49.154;8.254;2022-11-20T09:28:37;8.30;99.90
4934;DHT22;2482;49.154;8.254;2022-11-20T09:31:09;8.30;99.90
4934;DHT22;2482;49.154;8.254;2022-11-20T09:33:41;8.30;99.90
4934;DHT22;2482;49.154;8.254;2022-11-20T09:36:10;8.40;99.90
4934;DHT22;2482;49.154;8.254;2022-11-20T09:38:37;8.50;99.90
4934;DHT22;2482;49.154;8.254;2022-11-20T09:41:06;8.50;99.90
4934;DHT22;2482;49.154;8.254;2022-11-20T09:46:21;8.50;99.90
4934;DHT22;2482;49.154;8.254;2022-11-20T09:49:09;8.50;99.90
4934;DHT22;2482;49.154;8.254;2022-11-20T09:52:00;8.30;99.90
4934;DHT22;2482;49.154;8.254;2022-11-20T09:54:36;8.30;99.90
4934;DHT22;2482;49.154;8.254;2022-11-20T09:57:18;8.20;99.90
4934;DHT22;2482;49.154;8.254;2022-11-20T09:59:56;8.30;99.90
4934;DHT22;2482;49.154;8.254;2022-11-20T10:02:55;8.10;99.90
4934;DHT22;2482;49.154;8.254;2022-11-20T10:14:12;8.40;99.90
4934;DHT22;2482;49.154;8.254;2022-11-20T10:22:31;8.50;99.90
4934;DHT22;2482;49.154;8.254;2022-11-20T10:25:38;8.50;99.90
4934;DHT22;2482;49.154;8.254;2022-11-20T10:31:42;8.70;99.90
4934;DHT22;2482;49.154;8.254;2022-11-20T10:34:24;8.80;99.90
4934;DHT22;2482;49.154;8.254;2022-11-20T10:36:58;8.70;99.90
4934;DHT22;2482;49.154;8.254;2022-11-20T10:45:18;8.90;99.90
4934;DHT22;2482;49.154;8.254;2022-11-20T10:47:48;9.20;99.90
4934;DHT22;2482;49.154;8.254;2022-11-20T10:50:19;9.20;99.90
4934;DHT22;2482;49.154;8.254;2022-11-20T10:56:33;9.30;99.90
4934;DHT22;2482;49.154;8.254;2022-11-20T10:59:41;9.30;99.90
4934;DHT22;2482;49.154;8.254;2022-11-20T11:07:55;9.30;99.90
4934;DHT22;2482;49.154;8.254;2022-11-20T11:11:00;9.50;99.90
4934;DHT22;2482;49.154;8.254;2022-11-20T11:13:30;9.60;99.90
4934;DHT22;2482;49.154;8.254;2022-11-20T11:15:57;9.70;99.90
4934;DHT22;2482;49.154;8.254;2022-11-20T11:18:33;9.60;99.90
4934;DHT22;2482;49.154;8.254;2022-11-20T11:21:03;9.50;99.90
4934;DHT22;2482;49.154;8.254;2022-11-20T11:26:05;9.40;99.90
4934;DHT22;2482;49.154;8.254;2022-11-20T11:28:34;9.40;99.90
4934;DHT22;2482;49.154;8.254;2022-11-20T11:31:01;9.40;99.90
4934;DHT22;2482;49.154;8.254;2022-11-20T11:33:29;9.40;99.90
4934;DHT22;2482;49.154;8.254;2022-11-20T11:36:00;9.20;99.90
4934;DHT22;2482;49.154;8.254;2022-11-20T11:38:39;9.30;99.90
4934;DHT22;2482;49.154;8.254;2022-11-20T11:41:15;9.40;99.90
4934;DHT22;2482;49.154;8.254;2022-11-20T11:43:56;9.50;99.90
4934;DHT22;2482;49.154;8.254;2022-11-20T11:46:53;9.60;99.90
4934;DHT22;2482;49.154;8.254;2022-11-20T11:49:21;9.70;99.90
4934;DHT22;2482;49.154;8.254;2022-11-20T11:51:59;9.90;99.90
4934;DHT22;2482;49.154;8.254;2022-11-20T11:57:37;10.10;99.90
4934;DHT22;2482;49.154;8.254;2022-11-20T12:00:27;10.00;99.90
4934;DHT22;2482;49.154;8.254;2022-11-20T12:03:13;9.90;99.90
4934;DHT22;2482;49.154;8.254;2022-11-20T12:05:58;10.00;99.90
4934;DHT22;2482;49.154;8.254;2022-11-20T12:08:56;10.20;99.90
4934;DHT22;2482;49.154;8.254;2022-11-20T12:11:53;10.30;99.90
4934;DHT22;2482;49.154;8.254;2022-11-20T12:14:34;10.30;99.90
4934;DHT22;2482;49.154;8.254;2022-11-20T12:17:03;10.50;99.90
4934;DHT22;2482;49.154;8.254;2022-11-20T12:19:33;10.50;99.90
4934;DHT22;2482;49.154;8.254;2022-11-20T12:25:00;10.30;99.90
4934;DHT22;2482;49.154;8.254;2022-11-20T12:40:07;10.30;99.90
4934;DHT22;2482;49.154;8.254;2022-11-20T13:00:24;10.50;99.90
4934;DHT22;2482;49.154;8.254;2022-11-20T13:08:53;10.40;99.90
4934;DHT22;2482;49.154;8.254;2022-11-20T13:11:44;10.20;99.90
4934;DHT22;2482;49.154;8.254;2022-11-20T13:17:54;10.10;99.90
4934;DHT22;2482;49.154;8.254;2022-11-20T13:20:23;10.00;99.90
4934;DHT22;2482;49.154;8.254;2022-11-20T13:22:55;10.10;99.90
4934;DHT22;2482;49.154;8.254;2022-11-20T13:25:25;9.90;99.90
4934;DHT22;2482;49.154;8.254;2022-11-20T13:28:29;9.90;99.90
4934;DHT22;2482;49.154;8.254;2022-11-20T13:30:57;10.00;99.90
4934;DHT22;2482;49.154;8.254;2022-11-20T13:33:31;10.00;99.90
4934;DHT22;2482;49.154;8.254;2022-11-20T13:36:01;10.10;99.90
4934;DHT22;2482;49.154;8.254;2022-11-20T13:38:44;10.00;99.90
4934;DHT22;2482;49.154;8.254;2022-11-20T13:44:14;10.00;99.90
4934;DHT22;2482;49.154;8.254;2022-11-20T13:46:50;9.90;99.90
4934;DHT22;2482;49.154;8.254;2022-11-20T13:49:32;9.80;99.90
4934;DHT22;2482;49.154;8.254;2022-11-20T14:00:24;9.60;99.90
4934;DHT22;2482;49.154;8.254;2022-11-20T14:03:21;9.50;99.90
4934;DHT22;2482;49.154;8.254;2022-11-20T14:06:18;9.50;99.90
4934;DHT22;2482;49.154;8.254;2022-11-20T14:08:52;9.50;99.90
4934;DHT22;2482;49.154;8.254;2022-11-20T14:11:21;9.40;99.90
4934;DHT22;2482;49.154;8.254;2022-11-20T14:16:32;9.50;99.90
4934;DHT22;2482;49.154;8.254;2022-11-20T14:21:54;9.40;99.90
4934;DHT22;2482;49.154;8.254;2022-11-20T14:24:33;9.40;99.90
4934;DHT22;2482;49.154;8.254;2022-11-20T14:27:00;9.40;99.90
4934;DHT22;2482;49.154;8.254;2022-11-20T14:29:35;9.40;99.90
4934;DHT22;2482;49.154;8.254;2022-11-20T14:32:04;9.40;99.90
4934;DHT22;2482;49.154;8.254;2022-11-20T14:34:37;9.30;99.90
4934;DHT22;2482;49.154;8.254;2022-11-20T14:37:24;9.30;99.90
4934;DHT22;2482;49.154;8.254;2022-11-20T14:42:28;9.10;99.90
4934;DHT22;2482;49.154;8.254;2022-11-20T14:44:59;9.30;99.90
4934;DHT22;2482;49.154;8.254;2022-11-20T14:47:29;9.30;99.90
4934;DHT22;2482;49.154;8.254;2022-11-20T14:49:57;9.30;99.90
4934;DHT22;2482;49.154;8.254;2022-11-20T14:52:27;9.20;99.90
4934;DHT22;2482;49.154;8.254;2022-11-20T14:54:56;9.20;99.90
4934;DHT22;2482;49.154;8.254;2022-11-20T14:57:27;9.10;99.90
4934;DHT22;2482;49.154;8.254;2022-11-20T15:02:48;9.00;99.90
4934;DHT22;2482;49.154;8.254;2022-11-20T15:05:18;9.10;99.90
4934;DHT22;2482;49.154;8.254;2022-11-20T15:08:04;8.90;99.90
4934;DHT22;2482;49.154;8.254;2022-11-20T15:10:35;8.90;99.90
4934;DHT22;2482;49.154;8.254;2022-11-20T15:13:10;9.00;99.90
4934;DHT22;2482;49.154;8.254;2022-11-20T15:15:53;9.00;99.90
4934;DHT22;2482;49.154;8.254;2022-11-20T15:18:48;8.90;99.90
4934;DHT22;2482;49.154;8.254;2022-11-20T15:21:19;8.80;99.90
4934;DHT22;2482;49.154;8.254;2022-11-20T15:23:47;8.70;99.90
4934;DHT22;2482;49.154;8.254;2022-11-20T15:26:25;8.70;99.90
4934;DHT22;2482;49.154;8.254;2022-11-20T15:28:54;8.70;99.90
4934;DHT22;2482;49.154;8.254;2022-11-20T15:31:23;8.60;99.90
4934;DHT22;2482;49.154;8.254;2022-11-20T15:33:50;8.60;99.90
4934;DHT22;2482;49.154;8.254;2022-11-20T15:36:17;8.80;99.90
4934;DHT22;2482;49.154;8.254;2022-11-20T15:38:44;8.70;99.90
4934;DHT22;2482;49.154;8.254;2022-11-20T15:41:11;8.70;99.90
4934;DHT22;2482;49.154;8.254;2022-11-20T15:43:38;8.60;99.90
4934;DHT22;2482;49.154;8.254;2022-11-20T15:46:14;8.60;99.90
4934;DHT22;2482;49.154;8.254;2022-11-20T15:48:44;8.60;99.90
4934;DHT22;2482;49.154;8.254;2022-11-20T15:53:50;8.60;99.90
4934;DHT22;2482;49.154;8.254;2022-11-20T15:56:17;8.60;99.90
4934;DHT22;2482;49.154;8.254;2022-11-20T15:58:44;8.60;99.90
4934;DHT22;2482;49.154;8.254;2022-11-20T16:01:12;8.60;99.90
4934;DHT22;2482;49.154;8.254;2022-11-20T16:03:41;8.50;99.90
4934;DHT22;2482;49.154;8.254;2022-11-20T16:06:08;8.50;99.90
4934;DHT22;2482;49.154;8.254;2022-11-20T16:08:35;8.40;99.90
4934;DHT22;2482;49.154;8.254;2022-11-20T16:11:02;8.80;99.90
4934;DHT22;2482;49.154;8.254;2022-11-20T16:13:31;8.70;99.90
4934;DHT22;2482;49.154;8.254;2022-11-20T16:16:26;8.60;99.90
4934;DHT22;2482;49.154;8.254;2022-11-20T16:18:57;8.50;99.90
4934;DHT22;2482;49.154;8.254;2022-11-20T16:21:24;8.50;99.90
4934;DHT22;2482;49.154;8.254;2022-11-20T16:24:02;8.50;99.90
4934;DHT22;2482;49.154;8.254;2022-11-20T16:26:31;8.50;99.90
4934;DHT22;2482;49.154;8.254;2022-11-20T16:28:59;8.60;99.90
4934;DHT22;2482;49.154;8.254;2022-11-20T16:31:27;8.50;99.90
4934;DHT22;2482;49.154;8.254;2022-11-20T16:33:56;8.50;99.90
4934;DHT22;2482;49.154;8.254;2022-11-20T16:36:26;8.40;99.90
4934;DHT22;2482;49.154;8.254;2022-11-20T16:38:56;8.40;99.90
4934;DHT22;2482;49.154;8.254;2022-11-20T16:41:29;8.50;99.90
4934;DHT22;2482;49.154;8.254;2022-11-20T16:44:01;8.50;99.90
4934;DHT22;2482;49.154;8.254;2022-11-20T16:46:31;8.60;99.90
4934;DHT22;2482;49.154;8.254;2022-11-20T16:49:03;8.50;99.90
4934;DHT22;2482;49.154;8.254;2022-11-20T16:51:34;8.50;99.90
4934;DHT22;2482;49.154;8.254;2022-11-20T16:54:06;8.50;99.90
4934;DHT22;2482;49.154;8.254;2022-11-20T16:56:35;8.40;99.90
4934;DHT22;2482;49.154;8.254;2022-11-20T16:59:02;8.50;99.90
4934;DHT22;2482;49.154;8.254;2022-11-20T17:01:30;8.50;99.90
4934;DHT22;2482;49.154;8.254;2022-11-20T17:04:03;8.80;99.90
4934;DHT22;2482;49.154;8.254;2022-11-20T17:06:33;8.60;99.90
4934;DHT22;2482;49.154;8.254;2022-11-20T17:09:03;8.50;99.90
4934;DHT22;2482;49.154;8.254;2022-11-20T17:11:30;8.40;99.90
4934;DHT22;2482;49.154;8.254;2022-11-20T17:13:59;8.40;99.90
4934;DHT22;2482;49.154;8.254;2022-11-20T17:16:29;8.20;99.90
4934;DHT22;2482;49.154;8.254;2022-11-20T17:18:57;8.40;99.90
4934;DHT22;2482;49.154;8.254;2022-11-20T17:21:30;8.10;99.90
4934;DHT22;2482;49.154;8.254;2022-11-20T17:24:03;8.20;99.90
4934;DHT22;2482;49.154;8.254;2022-11-20T17:26:33;8.20;99.90
4934;DHT22;2482;49.154;8.254;2022-11-20T17:29:15;8.10;99.90
4934;DHT22;2482;49.154;8.254;2022-11-20T17:31:43;8.10;99.90
4934;DHT22;2482;49.154;8.254;2022-11-20T17:34:12;8.10;99.90
4934;DHT22;2482;49.154;8.254;2022-11-20T17:36:40;8.10;99.90
4934;DHT22;2482;49.154;8.254;2022-11-20T17:39:13;8.10;99.90
4934;DHT22;2482;49.154;8.254;2022-11-20T17:41:41;8.10;99.90
4934;DHT22;2482;49.154;8.254;2022-11-20T17:44:09;8.20;99.90
4934;DHT22;2482;49.154;8.254;2022-11-20T17:46:37;8.30;99.90
4934;DHT22;2482;49.154;8.254;2022-11-20T17:49:05;8.40;99.90
4934;DHT22;2482;49.154;8.254;2022-11-20T17:51:33;8.20;99.90
4934;DHT22;2482;49.154;8.254;2022-11-20T17:54:02;8.30;99.90
4934;DHT22;2482;49.154;8.254;2022-11-20T17:56:33;8.30;99.90
4934;DHT22;2482;49.154;8.254;2022-11-20T17:59:20;8.20;99.90
4934;DHT22;2482;49.154;8.254;2022-11-20T18:01:47;8.20;99.90
4934;DHT22;2482;49.154;8.254;2022-11-20T18:04:14;8.20;99.90
4934;DHT22;2482;49.154;8.254;2022-11-20T18:06:42;8.10;99.90
4934;DHT22;2482;49.154;8.254;2022-11-20T18:09:10;8.00;99.90
4934;DHT22;2482;49.154;8.254;2022-11-20T18:11:39;8.00;99.90
4934;DHT22;2482;49.154;8.254;2022-11-20T18:14:11;8.00;99.90
4934;DHT22;2482;49.154;8.254;2022-11-20T18:16:54;7.90;99.90
4934;DHT22;2482;49.154;8.254;2022-11-20T18:19:29;7.90;99.90
4934;DHT22;2482;49.154;8.254;2022-11-20T18:21:59;7.80;99.90
4934;DHT22;2482;49.154;8.254;2022-11-20T18:24:33;7.60;99.90
4934;DHT22;2482;49.154;8.254;2022-11-20T18:27:02;7.50;99.90
4934;DHT22;2482;49.154;8.254;2022-11-20T18:29:30;7.40;99.90
4934;DHT22;2482;49.154;8.254;2022-11-20T18:31:58;7.40;99.90
4934;DHT22;2482;49.154;8.254;2022-11-20T18:34:26;7.20;99.90
4934;DHT22;2482;49.154;8.254;2022-11-20T18:36:53;7.20;99.90
4934;DHT22;2482;49.154;8.254;2022-11-20T18:39:20;7.20;99.90